sensor_id;sensor_type;location;lat;lon;timestamp;temperature;humidity
15834;DHT22;8017;50.812;4.934;2023-04-25T00:01:47;8.20;99.90
15834;DHT22;8017;50.812;4.934;2023-04-25T00:04:49;8.20;99.90
15834;DHT22;8017;50.812;4.934;2023-04-25T00:07:52;8.20;99.90
15834;DHT22;8017;50.812;4.934;2023-04-25T00:10:54;8.20;99.90
15834;DHT22;8017;50.812;4.934;2023-04-25T00:13:58;8.30;99.90
15834;DHT22;8017;50.812;4.934;2023-04-25T00:17:00;8.30;99.90
15834;DHT22;8017;50.812;4.934;2023-04-25T00:20:03;8.20;99.90
15834;DHT22;8017;50.812;4.934;2023-04-25T00:23:07;8.20;99.90
15834;DHT22;8017;50.812;4.934;2023-04-25T00:26:09;8.20;99.90
15834;DHT22;8017;50.812;4.934;2023-04-25T00:29:12;8.40;99.90
15834;DHT22;8017;50.812;4.934;2023-04-25T00:32:14;8.20;99.90
15834;DHT22;8017;50.812;4.934;2023-04-25T00:35:16;8.10;99.90
15834;DHT22;8017;50.812;4.934;2023-04-25T00:38:18;8.10;99.90
15834;DHT22;8017;50.812;4.934;2023-04-25T00:41:20;8.20;99.90
15834;DHT22;8017;50.812;4.934;2023-04-25T00:44:24;8.20;99.90
15834;DHT22;8017;50.812;4.934;2023-04-25T00:47:28;8.10;99.90
15834;DHT22;8017;50.812;4.934;2023-04-25T00:50:30;8.00;99.90
15834;DHT22;8017;50.812;4.934;2023-04-25T00:53:34;8.00;99.90
15834;DHT22;8017;50.812;4.934;2023-04-25T00:56:36;8.00;99.90
15834;DHT22;8017;50.812;4.934;2023-04-25T00:59:42;8.00;99.90
15834;DHT22;8017;50.812;4.934;2023-04-25T01:02:46;8.10;99.90
15834;DHT22;8017;50.812;4.934;2023-04-25T01:05:48;8.20;99.90
15834;DHT22;8017;50.812;4.934;2023-04-25T01:08:51;8.20;99.90
15834;DHT22;8017;50.812;4.934;2023-04-25T01:11:53;8.10;99.90
15834;DHT22;8017;50.812;4.934;2023-04-25T01:14:56;8.20;99.90
15834;DHT22;8017;50.812;4.934;2023-04-25T01:17:58;8.20;99.90
15834;DHT22;8017;50.812;4.934;2023-04-25T01:21:07;8.10;99.90
15834;DHT22;8017;50.812;4.934;2023-04-25T01:24:09;8.00;99.90
15834;DHT22;8017;50.812;4.934;2023-04-25T01:27:12;8.00;99.90
15834;DHT22;8017;50.812;4.934;2023-04-25T01:30:14;8.00;99.90
15834;DHT22;8017;50.812;4.934;2023-04-25T01:33:16;7.90;99.90
15834;DHT22;8017;50.812;4.934;2023-04-25T01:36:20;7.80;99.90
15834;DHT22;8017;50.812;4.934;2023-04-25T01:39:23;7.80;99.90
15834;DHT22;8017;50.812;4.934;2023-04-25T01:42:26;7.90;99.90
15834;DHT22;8017;50.812;4.934;2023-04-25T01:45:27;7.80;99.90
15834;DHT22;8017;50.812;4.934;2023-04-25T01:48:29;7.70;99.90
15834;DHT22;8017;50.812;4.934;2023-04-25T01:51:33;7.80;99.90
15834;DHT22;8017;50.812;4.934;2023-04-25T01:54:35;7.80;99.90
15834;DHT22;8017;50.812;4.934;2023-04-25T01:57:37;7.80;99.90
15834;DHT22;8017;50.812;4.934;2023-04-25T02:00:39;7.90;99.90
15834;DHT22;8017;50.812;4.934;2023-04-25T02:03:41;7.90;99.90
15834;DHT22;8017;50.812;4.934;2023-04-25T02:06:44;7.80;99.90
15834;DHT22;8017;50.812;4.934;2023-04-25T02:09:46;7.60;99.90
15834;DHT22;8017;50.812;4.934;2023-04-25T02:12:48;7.60;99.90
15834;DHT22;8017;50.812;4.934;2023-04-25T02:15:50;7.60;99.90
15834;DHT22;8017;50.812;4.934;2023-04-25T02:18:52;7.60;99.90
15834;DHT22;8017;50.812;4.934;2023-04-25T02:21:55;7.50;99.90
15834;DHT22;8017;50.812;4.934;2023-04-25T02:24:58;7.40;99.90
15834;DHT22;8017;50.812;4.934;2023-04-25T02:28:00;7.40;99.90
15834;DHT22;8017;50.812;4.934;2023-04-25T02:31:02;7.40;99.90
15834;DHT22;8017;50.812;4.934;2023-04-25T02:34:04;7.50;99.90
15834;DHT22;8017;50.812;4.934;2023-04-25T02:37:07;7.50;99.90
15834;DHT22;8017;50.812;4.934;2023-04-25T02:40:10;7.40;99.90
15834;DHT22;8017;50.812;4.934;2023-04-25T02:43:11;7.40;99.90
15834;DHT22;8017;50.812;4.934;2023-04-25T02:46:14;7.40;99.90
15834;DHT22;8017;50.812;4.934;2023-04-25T02:49:16;7.40;99.90
15834;DHT22;8017;50.812;4.934;2023-04-25T02:52:19;7.50;99.90
15834;DHT22;8017;50.812;4.934;2023-04-25T02:55:21;7.50;99.90
15834;DHT22;8017;50.812;4.934;2023-04-25T02:58:23;7.60;99.90
15834;DHT22;8017;50.812;4.934;2023-04-25T03:01:25;7.70;99.90
15834;DHT22;8017;50.812;4.934;2023-04-25T03:04:27;7.70;99.90
15834;DHT22;8017;50.812;4.934;2023-04-25T03:07:31;7.60;99.90
15834;DHT22;8017;50.812;4.934;2023-04-25T03:10:32;7.50;99.90
15834;DHT22;8017;50.812;4.934;2023-04-25T03:13:34;7.40;99.90
15834;DHT22;8017;50.812;4.934;2023-04-25T03:16:36;7.40;99.90
15834;DHT22;8017;50.812;4.934;2023-04-25T03:19:38;7.40;99.90
15834;DHT22;8017;50.812;4.934;2023-04-25T03:22:41;7.30;99.90
15834;DHT22;8017;50.812;4.934;2023-04-25T03:25:43;7.30;99.90
15834;DHT22;8017;50.812;4.934;2023-04-25T03:28:45;7.40;99.90
15834;DHT22;8017;50.812;4.934;2023-04-25T03:31:47;7.50;99.90
15834;DHT22;8017;50.812;4.934;2023-04-25T03:34:49;7.50;99.90
15834;DHT22;8017;50.812;4.934;2023-04-25T03:37:52;7.50;99.90
15834;DHT22;8017;50.812;4.934;2023-04-25T03:40:54;7.50;99.90
15834;DHT22;8017;50.812;4.934;2023-04-25T03:43:56;7.40;99.90
15834;DHT22;8017;50.812;4.934;2023-04-25T03:46:58;7.40;99.90
15834;DHT22;8017;50.812;4.934;2023-04-25T03:50:00;7.40;99.90
15834;DHT22;8017;50.812;4.934;2023-04-25T03:53:04;7.40;99.90
15834;DHT22;8017;50.812;4.934;2023-04-25T03:56:06;7.40;99.90
15834;DHT22;8017;50.812;4.934;2023-04-25T03:59:10;7.30;99.90
15834;DHT22;8017;50.812;4.934;2023-04-25T04:02:11;7.30;99.90
15834;DHT22;8017;50.812;4.934;2023-04-25T04:05:13;7.50;99.90
15834;DHT22;8017;50.812;4.934;2023-04-25T04:08:17;7.50;99.90
15834;DHT22;8017;50.812;4.934;2023-04-25T04:11:18;7.50;99.90
15834;DHT22;8017;50.812;4.934;2023-04-25T04:14:21;7.40;99.90
15834;DHT22;8017;50.812;4.934;2023-04-25T04:17:23;7.40;99.90
15834;DHT22;8017;50.812;4.934;2023-04-25T04:20:25;7.40;99.90
15834;DHT22;8017;50.812;4.934;2023-04-25T04:23:28;7.20;99.90
15834;DHT22;8017;50.812;4.934;2023-04-25T04:26:31;7.10;99.90
15834;DHT22;8017;50.812;4.934;2023-04-25T04:29:34;7.00;99.90
15834;DHT22;8017;50.812;4.934;2023-04-25T04:32:37;6.90;99.90
15834;DHT22;8017;50.812;4.934;2023-04-25T04:35:39;6.90;99.90
15834;DHT22;8017;50.812;4.934;2023-04-25T04:38:42;6.90;99.90
15834;DHT22;8017;50.812;4.934;2023-04-25T04:41:44;6.90;99.90
15834;DHT22;8017;50.812;4.934;2023-04-25T04:44:46;6.90;99.90
15834;DHT22;8017;50.812;4.934;2023-04-25T04:47:48;7.00;99.90
15834;DHT22;8017;50.812;4.934;2023-04-25T04:50:50;7.00;99.90
15834;DHT22;8017;50.812;4.934;2023-04-25T04:53:53;6.90;99.90
15834;DHT22;8017;50.812;4.934;2023-04-25T04:56:58;6.90;99.90
15834;DHT22;8017;50.812;4.934;2023-04-25T05:00:00;6.80;99.90
15834;DHT22;8017;50.812;4.934;2023-04-25T05:03:03;6.90;99.90
15834;DHT22;8017;50.812;4.934;2023-04-25T05:06:06;7.10;99.90
15834;DHT22;8017;50.812;4.934;2023-04-25T05:09:10;7.10;99.90
15834;DHT22;8017;50.812;4.934;2023-04-25T05:12:12;7.20;99.90
15834;DHT22;8017;50.812;4.934;2023-04-25T05:15:14;7.20;99.90
15834;DHT22;8017;50.812;4.934;2023-04-25T05:18:16;7.20;99.90
15834;DHT22;8017;50.812;4.934;2023-04-25T05:21:18;7.30;99.90
15834;DHT22;8017;50.812;4.934;2023-04-25T05:24:21;7.20;99.90
15834;DHT22;8017;50.812;4.934;2023-04-25T05:27:24;7.20;99.90
15834;DHT22;8017;50.812;4.934;2023-04-25T05:30:26;7.40;99.90
15834;DHT22;8017;50.812;4.934;2023-04-25T05:33:28;7.30;99.90
15834;DHT22;8017;50.812;4.934;2023-04-25T05:36:30;7.40;99.90
15834;DHT22;8017;50.812;4.934;2023-04-25T05:39:34;7.40;99.90
15834;DHT22;8017;50.812;4.934;2023-04-25T05:42:36;7.50;99.90
15834;DHT22;8017;50.812;4.934;2023-04-25T05:45:38;7.50;99.90
15834;DHT22;8017;50.812;4.934;2023-04-25T05:48:40;7.50;99.90
15834;DHT22;8017;50.812;4.934;2023-04-25T05:51:42;7.50;99.90
15834;DHT22;8017;50.812;4.934;2023-04-25T05:54:45;7.40;99.90
15834;DHT22;8017;50.812;4.934;2023-04-25T05:57:47;7.50;99.90
15834;DHT22;8017;50.812;4.934;2023-04-25T06:00:49;7.60;99.90
15834;DHT22;8017;50.812;4.934;2023-04-25T06:03:51;7.60;99.90
15834;DHT22;8017;50.812;4.934;2023-04-25T06:06:53;7.50;99.90
15834;DHT22;8017;50.812;4.934;2023-04-25T06:09:56;7.50;99.90
15834;DHT22;8017;50.812;4.934;2023-04-25T06:12:58;7.50;99.90
15834;DHT22;8017;50.812;4.934;2023-04-25T06:16:00;7.60;99.90
15834;DHT22;8017;50.812;4.934;2023-04-25T06:19:02;7.70;99.90
15834;DHT22;8017;50.812;4.934;2023-04-25T06:22:04;7.80;99.90
15834;DHT22;8017;50.812;4.934;2023-04-25T06:25:08;7.90;99.90
15834;DHT22;8017;50.812;4.934;2023-04-25T06:28:10;7.90;99.90
15834;DHT22;8017;50.812;4.934;2023-04-25T06:31:12;8.00;99.90
15834;DHT22;8017;50.812;4.934;2023-04-25T06:34:13;7.90;99.90
15834;DHT22;8017;50.812;4.934;2023-04-25T06:37:15;7.80;99.90
15834;DHT22;8017;50.812;4.934;2023-04-25T06:40:19;7.90;99.90
15834;DHT22;8017;50.812;4.934;2023-04-25T06:43:21;7.70;99.90
15834;DHT22;8017;50.812;4.934;2023-04-25T06:46:22;7.80;99.90
15834;DHT22;8017;50.812;4.934;2023-04-25T06:49:24;8.10;99.90
15834;DHT22;8017;50.812;4.934;2023-04-25T06:52:26;8.30;99.90
15834;DHT22;8017;50.812;4.934;2023-04-25T06:55:29;8.40;99.90
15834;DHT22;8017;50.812;4.934;2023-04-25T06:58:31;8.50;99.90
15834;DHT22;8017;50.812;4.934;2023-04-25T07:01:33;8.70;99.90
15834;DHT22;8017;50.812;4.934;2023-04-25T07:04:35;8.70;99.90
15834;DHT22;8017;50.812;4.934;2023-04-25T07:07:37;8.90;99.90
15834;DHT22;8017;50.812;4.934;2023-04-25T07:10:41;9.00;99.90
15834;DHT22;8017;50.812;4.934;2023-04-25T07:13:43;9.30;99.90
15834;DHT22;8017;50.812;4.934;2023-04-25T07:16:45;9.40;99.90
15834;DHT22;8017;50.812;4.934;2023-04-25T07:19:47;9.60;99.90
15834;DHT22;8017;50.812;4.934;2023-04-25T07:22:49;9.70;99.90
15834;DHT22;8017;50.812;4.934;2023-04-25T07:25:53;9.70;99.90
15834;DHT22;8017;50.812;4.934;2023-04-25T07:28:55;9.60;99.90
15834;DHT22;8017;50.812;4.934;2023-04-25T07:31:56;9.60;99.90
15834;DHT22;8017;50.812;4.934;2023-04-25T07:34:58;9.80;99.90
15834;DHT22;8017;50.812;4.934;2023-04-25T07:38:02;10.00;99.90
15834;DHT22;8017;50.812;4.934;2023-04-25T07:41:06;10.20;99.90
15834;DHT22;8017;50.812;4.934;2023-04-25T07:44:08;10.20;99.90
15834;DHT22;8017;50.812;4.934;2023-04-25T07:47:10;10.20;99.90
15834;DHT22;8017;50.812;4.934;2023-04-25T07:50:12;10.30;99.90
15834;DHT22;8017;50.812;4.934;2023-04-25T07:53:14;10.50;99.90
15834;DHT22;8017;50.812;4.934;2023-04-25T07:56:17;10.60;99.90
15834;DHT22;8017;50.812;4.934;2023-04-25T07:59:19;10.40;99.90
15834;DHT22;8017;50.812;4.934;2023-04-25T08:02:22;10.20;99.90
15834;DHT22;8017;50.812;4.934;2023-04-25T08:05:24;10.30;99.90
15834;DHT22;8017;50.812;4.934;2023-04-25T08:08:25;10.10;99.90
15834;DHT22;8017;50.812;4.934;2023-04-25T08:11:29;10.30;99.90
15834;DHT22;8017;50.812;4.934;2023-04-25T08:14:31;10.50;99.90
15834;DHT22;8017;50.812;4.934;2023-04-25T08:17:36;10.70;99.90
15834;DHT22;8017;50.812;4.934;2023-04-25T08:20:38;10.70;99.90
15834;DHT22;8017;50.812;4.934;2023-04-25T08:23:41;10.70;99.90
15834;DHT22;8017;50.812;4.934;2023-04-25T08:26:44;10.70;99.90
15834;DHT22;8017;50.812;4.934;2023-04-25T08:29:46;10.60;99.90
15834;DHT22;8017;50.812;4.934;2023-04-25T08:32:48;10.30;99.90
15834;DHT22;8017;50.812;4.934;2023-04-25T08:35:49;10.30;99.90
15834;DHT22;8017;50.812;4.934;2023-04-25T08:38:51;10.20;99.90
15834;DHT22;8017;50.812;4.934;2023-04-25T08:41:55;9.80;99.90
15834;DHT22;8017;50.812;4.934;2023-04-25T08:44:57;9.70;99.90
15834;DHT22;8017;50.812;4.934;2023-04-25T08:48:01;9.60;99.90
15834;DHT22;8017;50.812;4.934;2023-04-25T08:51:07;9.50;99.90
15834;DHT22;8017;50.812;4.934;2023-04-25T08:54:11;9.70;99.90
15834;DHT22;8017;50.812;4.934;2023-04-25T08:57:14;9.60;99.90
15834;DHT22;8017;50.812;4.934;2023-04-25T09:00:17;9.50;99.90
15834;DHT22;8017;50.812;4.934;2023-04-25T09:03:20;9.70;99.90
15834;DHT22;8017;50.812;4.934;2023-04-25T09:06:23;9.70;99.90
15834;DHT22;8017;50.812;4.934;2023-04-25T09:09:25;9.60;99.90
15834;DHT22;8017;50.812;4.934;2023-04-25T09:12:29;9.60;99.90
15834;DHT22;8017;50.812;4.934;2023-04-25T09:15:31;9.70;99.90
15834;DHT22;8017;50.812;4.934;2023-04-25T09:18:34;9.90;99.90
15834;DHT22;8017;50.812;4.934;2023-04-25T09:21:36;10.10;99.90
15834;DHT22;8017;50.812;4.934;2023-04-25T09:24:39;10.60;99.90
15834;DHT22;8017;50.812;4.934;2023-04-25T09:27:53;11.00;99.90
15834;DHT22;8017;50.812;4.934;2023-04-25T09:30:57;11.00;99.90
15834;DHT22;8017;50.812;4.934;2023-04-25T09:34:00;11.00;99.90
15834;DHT22;8017;50.812;4.934;2023-04-25T09:37:02;10.80;99.90
15834;DHT22;8017;50.812;4.934;2023-04-25T09:40:06;10.60;99.90
15834;DHT22;8017;50.812;4.934;2023-04-25T09:43:18;10.30;99.90
15834;DHT22;8017;50.812;4.934;2023-04-25T09:46:23;10.50;99.90
15834;DHT22;8017;50.812;4.934;2023-04-25T09:49:26;11.00;99.90
15834;DHT22;8017;50.812;4.934;2023-04-25T09:52:28;11.70;99.90
15834;DHT22;8017;50.812;4.934;2023-04-25T09:55:32;12.10;99.90
15834;DHT22;8017;50.812;4.934;2023-04-25T09:58:38;12.10;99.90
15834;DHT22;8017;50.812;4.934;2023-04-25T10:01:40;11.60;99.90
15834;DHT22;8017;50.812;4.934;2023-04-25T10:04:47;10.80;99.90
15834;DHT22;8017;50.812;4.934;2023-04-25T10:07:49;10.50;99.90
15834;DHT22;8017;50.812;4.934;2023-04-25T10:10:51;10.10;99.90
15834;DHT22;8017;50.812;4.934;2023-04-25T10:13:55;10.10;99.90
15834;DHT22;8017;50.812;4.934;2023-04-25T10:16:57;9.70;99.90
15834;DHT22;8017;50.812;4.934;2023-04-25T10:20:01;9.60;99.90
15834;DHT22;8017;50.812;4.934;2023-04-25T10:23:08;9.60;99.90
15834;DHT22;8017;50.812;4.934;2023-04-25T10:26:13;9.80;99.90
15834;DHT22;8017;50.812;4.934;2023-04-25T10:29:24;10.30;99.90
15834;DHT22;8017;50.812;4.934;2023-04-25T10:32:26;10.70;99.90
15834;DHT22;8017;50.812;4.934;2023-04-25T10:35:29;11.00;99.90
15834;DHT22;8017;50.812;4.934;2023-04-25T10:38:31;11.00;99.90
15834;DHT22;8017;50.812;4.934;2023-04-25T10:41:45;10.80;99.90
15834;DHT22;8017;50.812;4.934;2023-04-25T10:45:04;10.70;99.90
15834;DHT22;8017;50.812;4.934;2023-04-25T10:48:24;10.30;99.90
15834;DHT22;8017;50.812;4.934;2023-04-25T10:51:28;10.20;99.90
15834;DHT22;8017;50.812;4.934;2023-04-25T10:54:30;10.20;99.90
15834;DHT22;8017;50.812;4.934;2023-04-25T10:57:37;10.30;99.90
15834;DHT22;8017;50.812;4.934;2023-04-25T11:00:41;10.60;99.90
15834;DHT22;8017;50.812;4.934;2023-04-25T11:03:43;10.60;99.90
15834;DHT22;8017;50.812;4.934;2023-04-25T11:07:04;10.60;99.90
15834;DHT22;8017;50.812;4.934;2023-04-25T11:10:07;10.90;99.90
15834;DHT22;8017;50.812;4.934;2023-04-25T11:13:09;11.30;99.90
15834;DHT22;8017;50.812;4.934;2023-04-25T11:16:12;11.80;99.90
15834;DHT22;8017;50.812;4.934;2023-04-25T11:19:14;11.80;99.90
15834;DHT22;8017;50.812;4.934;2023-04-25T11:22:16;11.90;99.90
15834;DHT22;8017;50.812;4.934;2023-04-25T11:25:18;12.40;99.90
15834;DHT22;8017;50.812;4.934;2023-04-25T11:28:22;12.90;99.90
15834;DHT22;8017;50.812;4.934;2023-04-25T11:31:26;13.10;99.90
15834;DHT22;8017;50.812;4.934;2023-04-25T11:34:28;13.10;99.90
15834;DHT22;8017;50.812;4.934;2023-04-25T11:37:31;12.90;99.90
15834;DHT22;8017;50.812;4.934;2023-04-25T11:40:35;12.90;99.90
15834;DHT22;8017;50.812;4.934;2023-04-25T11:43:37;12.60;99.90
15834;DHT22;8017;50.812;4.934;2023-04-25T11:46:41;12.60;99.90
15834;DHT22;8017;50.812;4.934;2023-04-25T11:49:43;12.70;99.90
15834;DHT22;8017;50.812;4.934;2023-04-25T11:52:46;13.10;99.90
15834;DHT22;8017;50.812;4.934;2023-04-25T11:55:49;13.30;99.90
15834;DHT22;8017;50.812;4.934;2023-04-25T11:58:57;13.60;99.90
15834;DHT22;8017;50.812;4.934;2023-04-25T12:02:00;13.60;99.90
15834;DHT22;8017;50.812;4.934;2023-04-25T12:05:06;13.20;99.90
15834;DHT22;8017;50.812;4.934;2023-04-25T12:08:12;13.00;99.90
15834;DHT22;8017;50.812;4.934;2023-04-25T12:11:21;12.50;99.90
15834;DHT22;8017;50.812;4.934;2023-04-25T12:14:24;11.90;99.90
15834;DHT22;8017;50.812;4.934;2023-04-25T12:17:29;11.40;99.90
15834;DHT22;8017;50.812;4.934;2023-04-25T12:20:31;11.00;99.90
15834;DHT22;8017;50.812;4.934;2023-04-25T12:23:33;9.80;99.90
15834;DHT22;8017;50.812;4.934;2023-04-25T12:26:46;9.20;99.90
15834;DHT22;8017;50.812;4.934;2023-04-25T12:29:52;9.20;99.90
15834;DHT22;8017;50.812;4.934;2023-04-25T12:32:56;9.40;99.90
15834;DHT22;8017;50.812;4.934;2023-04-25T12:35:58;9.80;99.90
15834;DHT22;8017;50.812;4.934;2023-04-25T12:39:00;10.30;99.90
15834;DHT22;8017;50.812;4.934;2023-04-25T12:42:04;10.40;99.90
15834;DHT22;8017;50.812;4.934;2023-04-25T12:45:08;10.50;99.90
15834;DHT22;8017;50.812;4.934;2023-04-25T12:48:11;10.60;99.90
15834;DHT22;8017;50.812;4.934;2023-04-25T12:51:13;10.70;99.90
15834;DHT22;8017;50.812;4.934;2023-04-25T12:54:15;11.00;99.90
15834;DHT22;8017;50.812;4.934;2023-04-25T12:57:17;11.20;99.90
15834;DHT22;8017;50.812;4.934;2023-04-25T13:00:20;11.20;99.90
15834;DHT22;8017;50.812;4.934;2023-04-25T13:03:24;11.30;99.90
15834;DHT22;8017;50.812;4.934;2023-04-25T13:06:26;11.50;99.90
15834;DHT22;8017;50.812;4.934;2023-04-25T13:09:28;12.10;99.90
15834;DHT22;8017;50.812;4.934;2023-04-25T13:12:30;12.60;99.90
15834;DHT22;8017;50.812;4.934;2023-04-25T13:15:33;12.30;99.90
15834;DHT22;8017;50.812;4.934;2023-04-25T13:18:36;12.20;99.90
15834;DHT22;8017;50.812;4.934;2023-04-25T13:21:38;12.30;99.90
15834;DHT22;8017;50.812;4.934;2023-04-25T13:24:40;12.00;99.90
15834;DHT22;8017;50.812;4.934;2023-04-25T13:27:42;11.70;99.90
15834;DHT22;8017;50.812;4.934;2023-04-25T13:30:45;11.70;99.90
15834;DHT22;8017;50.812;4.934;2023-04-25T13:33:49;11.70;99.90
15834;DHT22;8017;50.812;4.934;2023-04-25T13:36:51;11.80;99.90
15834;DHT22;8017;50.812;4.934;2023-04-25T13:39:53;12.00;99.90
15834;DHT22;8017;50.812;4.934;2023-04-25T13:42:57;12.20;99.90
15834;DHT22;8017;50.812;4.934;2023-04-25T13:45:59;12.40;99.90
15834;DHT22;8017;50.812;4.934;2023-04-25T13:49:03;12.40;99.90
15834;DHT22;8017;50.812;4.934;2023-04-25T13:52:04;12.50;99.90
15834;DHT22;8017;50.812;4.934;2023-04-25T13:55:07;12.10;99.90
15834;DHT22;8017;50.812;4.934;2023-04-25T13:58:09;12.30;99.90
15834;DHT22;8017;50.812;4.934;2023-04-25T14:01:11;12.50;99.90
15834;DHT22;8017;50.812;4.934;2023-04-25T14:04:14;12.30;99.90
15834;DHT22;8017;50.812;4.934;2023-04-25T14:07:16;12.00;99.90
15834;DHT22;8017;50.812;4.934;2023-04-25T14:10:18;11.80;99.90
15834;DHT22;8017;50.812;4.934;2023-04-25T14:13:20;11.90;99.90
15834;DHT22;8017;50.812;4.934;2023-04-25T14:16:22;11.90;99.90
15834;DHT22;8017;50.812;4.934;2023-04-25T14:19:25;11.90;99.90
15834;DHT22;8017;50.812;4.934;2023-04-25T14:22:29;11.80;99.90
15834;DHT22;8017;50.812;4.934;2023-04-25T14:25:31;11.90;99.90
15834;DHT22;8017;50.812;4.934;2023-04-25T14:28:33;12.10;99.90
15834;DHT22;8017;50.812;4.934;2023-04-25T14:31:35;12.10;99.90
15834;DHT22;8017;50.812;4.934;2023-04-25T14:34:38;12.30;99.90
15834;DHT22;8017;50.812;4.934;2023-04-25T14:37:40;12.30;99.90
15834;DHT22;8017;50.812;4.934;2023-04-25T14:40:42;12.50;99.90
15834;DHT22;8017;50.812;4.934;2023-04-25T14:43:44;12.70;99.90
15834;DHT22;8017;50.812;4.934;2023-04-25T14:46:46;13.20;99.90
15834;DHT22;8017;50.812;4.934;2023-04-25T14:49:49;13.50;99.90
15834;DHT22;8017;50.812;4.934;2023-04-25T14:52:54;13.30;99.90
15834;DHT22;8017;50.812;4.934;2023-04-25T14:55:59;12.80;99.90
15834;DHT22;8017;50.812;4.934;2023-04-25T14:59:01;12.70;99.90
15834;DHT22;8017;50.812;4.934;2023-04-25T15:02:02;12.30;99.90
15834;DHT22;8017;50.812;4.934;2023-04-25T15:05:06;12.00;99.90
15834;DHT22;8017;50.812;4.934;2023-04-25T15:08:09;12.10;99.90
15834;DHT22;8017;50.812;4.934;2023-04-25T15:11:11;12.70;99.90
15834;DHT22;8017;50.812;4.934;2023-04-25T15:14:12;12.90;99.90
15834;DHT22;8017;50.812;4.934;2023-04-25T15:17:14;12.60;99.90
15834;DHT22;8017;50.812;4.934;2023-04-25T15:20:18;12.10;99.90
15834;DHT22;8017;50.812;4.934;2023-04-25T15:23:20;11.70;99.90
15834;DHT22;8017;50.812;4.934;2023-04-25T15:26:22;11.60;99.90
15834;DHT22;8017;50.812;4.934;2023-04-25T15:29:24;11.50;99.90
15834;DHT22;8017;50.812;4.934;2023-04-25T15:32:27;11.50;99.90
15834;DHT22;8017;50.812;4.934;2023-04-25T15:35:30;11.90;99.90
15834;DHT22;8017;50.812;4.934;2023-04-25T15:38:32;12.00;99.90
15834;DHT22;8017;50.812;4.934;2023-04-25T15:41:35;12.00;99.90
15834;DHT22;8017;50.812;4.934;2023-04-25T15:44:37;11.70;99.90
15834;DHT22;8017;50.812;4.934;2023-04-25T15:47:39;11.80;99.90
15834;DHT22;8017;50.812;4.934;2023-04-25T15:50:43;11.80;99.90
15834;DHT22;8017;50.812;4.934;2023-04-25T15:53:46;11.90;99.90
15834;DHT22;8017;50.812;4.934;2023-04-25T15:56:47;11.90;99.90
15834;DHT22;8017;50.812;4.934;2023-04-25T15:59:49;11.70;99.90
15834;DHT22;8017;50.812;4.934;2023-04-25T16:02:51;11.70;99.90
15834;DHT22;8017;50.812;4.934;2023-04-25T16:05:55;12.00;99.90
15834;DHT22;8017;50.812;4.934;2023-04-25T16:08:57;11.90;99.90
15834;DHT22;8017;50.812;4.934;2023-04-25T16:12:00;12.00;99.90
15834;DHT22;8017;50.812;4.934;2023-04-25T16:15:02;12.10;99.90
15834;DHT22;8017;50.812;4.934;2023-04-25T16:18:04;12.00;99.90
15834;DHT22;8017;50.812;4.934;2023-04-25T16:21:09;11.80;99.90
15834;DHT22;8017;50.812;4.934;2023-04-25T16:24:11;11.90;99.90
15834;DHT22;8017;50.812;4.934;2023-04-25T16:27:13;12.20;99.90
15834;DHT22;8017;50.812;4.934;2023-04-25T16:30:15;12.50;99.90
15834;DHT22;8017;50.812;4.934;2023-04-25T16:33:17;13.00;99.90
15834;DHT22;8017;50.812;4.934;2023-04-25T16:36:20;13.40;99.90
15834;DHT22;8017;50.812;4.934;2023-04-25T16:39:22;13.70;99.90
15834;DHT22;8017;50.812;4.934;2023-04-25T16:42:24;13.50;99.90
15834;DHT22;8017;50.812;4.934;2023-04-25T16:45:26;13.20;99.90
15834;DHT22;8017;50.812;4.934;2023-04-25T16:48:28;13.00;99.90
15834;DHT22;8017;50.812;4.934;2023-04-25T16:51:31;12.70;99.90
15834;DHT22;8017;50.812;4.934;2023-04-25T16:54:33;12.40;99.90
15834;DHT22;8017;50.812;4.934;2023-04-25T16:57:35;11.90;99.90
15834;DHT22;8017;50.812;4.934;2023-04-25T17:00:38;11.70;99.90
15834;DHT22;8017;50.812;4.934;2023-04-25T17:03:40;11.50;99.90
15834;DHT22;8017;50.812;4.934;2023-04-25T17:06:44;11.70;99.90
15834;DHT22;8017;50.812;4.934;2023-04-25T17:09:46;12.30;99.90
15834;DHT22;8017;50.812;4.934;2023-04-25T17:12:47;13.00;99.90
15834;DHT22;8017;50.812;4.934;2023-04-25T17:15:49;13.40;99.90
15834;DHT22;8017;50.812;4.934;2023-04-25T17:18:51;13.70;99.90
15834;DHT22;8017;50.812;4.934;2023-04-25T17:21:55;13.50;99.90
15834;DHT22;8017;50.812;4.934;2023-04-25T17:24:56;13.60;99.90
15834;DHT22;8017;50.812;4.934;2023-04-25T17:27:58;13.60;99.90
15834;DHT22;8017;50.812;4.934;2023-04-25T17:31:00;13.60;99.90
15834;DHT22;8017;50.812;4.934;2023-04-25T17:34:02;13.70;99.90
15834;DHT22;8017;50.812;4.934;2023-04-25T17:37:06;13.90;99.90
15834;DHT22;8017;50.812;4.934;2023-04-25T17:40:14;13.80;99.90
15834;DHT22;8017;50.812;4.934;2023-04-25T17:43:16;13.80;99.90
15834;DHT22;8017;50.812;4.934;2023-04-25T17:46:18;13.70;99.90
15834;DHT22;8017;50.812;4.934;2023-04-25T17:49:20;13.60;99.90
15834;DHT22;8017;50.812;4.934;2023-04-25T17:52:24;13.40;99.90
15834;DHT22;8017;50.812;4.934;2023-04-25T17:55:26;13.00;99.90
15834;DHT22;8017;50.812;4.934;2023-04-25T17:58:28;12.40;99.90
15834;DHT22;8017;50.812;4.934;2023-04-25T18:01:30;11.70;99.90
15834;DHT22;8017;50.812;4.934;2023-04-25T18:04:32;11.20;99.90
15834;DHT22;8017;50.812;4.934;2023-04-25T18:07:36;11.00;99.90
15834;DHT22;8017;50.812;4.934;2023-04-25T18:10:39;10.90;99.90
15834;DHT22;8017;50.812;4.934;2023-04-25T18:13:41;10.80;99.90
15834;DHT22;8017;50.812;4.934;2023-04-25T18:16:43;10.50;99.90
15834;DHT22;8017;50.812;4.934;2023-04-25T18:19:45;10.30;99.90
15834;DHT22;8017;50.812;4.934;2023-04-25T18:22:49;10.10;99.90
15834;DHT22;8017;50.812;4.934;2023-04-25T18:25:51;9.90;99.90
15834;DHT22;8017;50.812;4.934;2023-04-25T18:28:53;9.70;99.90
15834;DHT22;8017;50.812;4.934;2023-04-25T18:31:55;9.50;99.90
15834;DHT22;8017;50.812;4.934;2023-04-25T18:34:58;9.50;99.90
15834;DHT22;8017;50.812;4.934;2023-04-25T18:38:01;9.40;99.90
15834;DHT22;8017;50.812;4.934;2023-04-25T18:41:03;9.20;99.90
15834;DHT22;8017;50.812;4.934;2023-04-25T18:44:05;9.10;99.90
15834;DHT22;8017;50.812;4.934;2023-04-25T18:47:08;8.90;99.90
15834;DHT22;8017;50.812;4.934;2023-04-25T18:50:10;8.80;99.90
15834;DHT22;8017;50.812;4.934;2023-04-25T18:53:14;8.70;99.90
15834;DHT22;8017;50.812;4.934;2023-04-25T18:56:16;8.50;99.90
15834;DHT22;8017;50.812;4.934;2023-04-25T18:59:20;8.40;99.90
15834;DHT22;8017;50.812;4.934;2023-04-25T19:02:22;8.30;99.90
15834;DHT22;8017;50.812;4.934;2023-04-25T19:05:25;8.20;99.90
15834;DHT22;8017;50.812;4.934;2023-04-25T19:08:28;8.10;99.90
15834;DHT22;8017;50.812;4.934;2023-04-25T19:11:30;7.90;99.90
15834;DHT22;8017;50.812;4.934;2023-04-25T19:14:32;7.90;99.90
15834;DHT22;8017;50.812;4.934;2023-04-25T19:17:34;7.70;99.90
15834;DHT22;8017;50.812;4.934;2023-04-25T19:20:36;7.60;99.90
15834;DHT22;8017;50.812;4.934;2023-04-25T19:23:40;7.50;99.90
15834;DHT22;8017;50.812;4.934;2023-04-25T19:26:42;7.40;99.90
15834;DHT22;8017;50.812;4.934;2023-04-25T19:29:44;7.40;99.90
15834;DHT22;8017;50.812;4.934;2023-04-25T19:32:47;7.40;99.90
15834;DHT22;8017;50.812;4.934;2023-04-25T19:35:49;7.30;99.90
15834;DHT22;8017;50.812;4.934;2023-04-25T19:38:53;7.30;99.90
15834;DHT22;8017;50.812;4.934;2023-04-25T19:42:00;7.30;99.90
15834;DHT22;8017;50.812;4.934;2023-04-25T19:45:04;7.20;99.90